Mc Clellan Airfield
KMCC : now visible

Airfield :











YOU CAN JOIN US ON...

 
LOGIN :

Register | Disclaimer

   EN    FR    IT 

 









Legend :    VFR   Marginal VFR   IFR   Intensive IFR   Very Intensive IFR
Visi :
Ceiling :
>= 8 km
>= 3000ft
5 to 8 km
1000 to 3000 ft
1500m to 5 km
500 to 1000 ft
800 to 1500m
200 to 500 ft
< 800m
< 200 ft
Symbols :   Thunderstorms  Fog  Heavy snow  Heavy precipitations  Wind > 20 kt






- Airport Elevation : 77 ft


KMCC - Mc Clellan

CURRENT METAR :
  • 182035Z AUTO 00000G12KT 10SM CLR 26/08 A2998 RMK AO2

EXPIRED METARs :
  • 182015Z AUTO VRB04KT 10SM CLR 26/08 A2999 RMK AO2
  • 181955Z AUTO VRB06KT 10SM CLR 26/09 A3000 RMK AO2
  • 181935Z AUTO VRB06KT 10SM CLR 25/10 A3000 RMK AO2
  • 181915Z AUTO 21008KT 160V250 10SM CLR 25/10 A3001 RMK AO2
  • 181855Z AUTO 25007KT 10SM CLR 24/10 A3002 RMK AO2
  • 181835Z AUTO 22007KT 10SM CLR 23/10 A3003 RMK AO2
  • 181815Z AUTO VRB04KT 10SM CLR 22/10 A3004 RMK AO2

TAF KMCC
Valid from the 18 at 18:00 until the 19 at 18:00 UTC


181731Z 1818/1918 17011KT P6SM SKC
FM190000 22008KT P6SM SKC
KZOA FIR / North America



MET'MAP, your aeronautical weather chart ! - Copyright ORBIFLY December 2007 - Disclaimer

ORBIFLY MET'MAP TEAM :

Programming & Development : Alexandra Zaïnal
Concept & original design : Baudouin d'Aumeries
Assistance for programming : Marc-Olivier Méhu
Technical & hardware support : Manuel Goepfert

Contact : metmap@orbifly.com




SOURCES & CREDITS :

   NOAA       Earth
Advisory